createdAt,value
2024-03-07T00:00:44.815Z,7.90
2024-03-07T00:03:11.658Z,6.80
2024-03-07T00:05:38.688Z,5.97
2024-03-07T00:08:06.136Z,7.72
2024-03-07T00:13:01.546Z,7.43
2024-03-07T00:15:31.246Z,9.23
2024-03-07T00:17:58.365Z,8.35
2024-03-07T00:20:25.403Z,8.75
2024-03-07T00:22:52.470Z,7.75
2024-03-07T00:25:20.978Z,7.60
2024-03-07T00:27:48.539Z,7.45
2024-03-07T00:30:16.342Z,8.85
2024-03-07T00:32:43.259Z,9.38
2024-03-07T00:35:10.379Z,7.63
2024-03-07T00:37:37.583Z,8.00
2024-03-07T00:40:05.076Z,8.10
2024-03-07T00:42:32.039Z,6.75
2024-03-07T00:44:59.169Z,6.25
2024-03-07T00:47:26.120Z,7.55
2024-03-07T00:49:53.037Z,7.68
2024-03-07T00:52:19.885Z,7.78
2024-03-07T00:54:46.991Z,6.35
2024-03-07T00:57:13.848Z,7.88
2024-03-07T00:59:40.901Z,7.57
2024-03-07T01:02:08.117Z,7.28
2024-03-07T01:04:35.245Z,7.00
2024-03-07T01:07:02.572Z,7.80
2024-03-07T01:09:29.863Z,8.30
2024-03-07T01:11:57.437Z,8.45
2024-03-07T01:14:24.821Z,7.32
2024-03-07T01:19:18.836Z,5.63
2024-03-07T01:21:46.302Z,7.50
2024-03-07T01:24:13.312Z,7.10
2024-03-07T01:26:40.309Z,6.55
2024-03-07T01:29:08.089Z,5.63
2024-03-07T01:31:35.518Z,8.82
2024-03-07T01:34:02.536Z,7.25
2024-03-07T01:36:29.792Z,8.65
2024-03-07T01:38:56.649Z,6.93
2024-03-07T01:41:23.595Z,7.57
2024-03-07T01:43:50.429Z,5.78
2024-03-07T02:18:39.561Z,3.90
2024-03-07T02:21:12.712Z,7.95
2024-03-07T02:23:39.724Z,6.13
2024-03-07T02:26:06.536Z,9.13
2024-03-07T02:28:33.400Z,5.43
2024-03-07T02:31:00.235Z,5.25
2024-03-07T02:33:27.264Z,7.90
2024-03-07T02:35:54.403Z,7.35
2024-03-07T02:38:21.417Z,7.28
2024-03-07T02:40:48.283Z,7.28
2024-03-07T02:43:15.259Z,7.68
2024-03-07T02:45:42.265Z,8.02
2024-03-07T02:48:11.089Z,5.68
2024-03-07T02:50:38.679Z,6.40
2024-03-07T02:53:05.962Z,7.93
2024-03-07T02:55:33.727Z,7.93
2024-03-07T02:58:00.642Z,7.93
2024-03-07T03:00:28.219Z,4.50
2024-03-07T03:02:55.718Z,6.22
2024-03-07T03:05:23.728Z,8.57
2024-03-07T03:07:56.813Z,6.78
2024-03-07T03:10:35.157Z,6.43
2024-03-07T03:13:02.514Z,8.20
2024-03-07T03:15:30.527Z,7.25
2024-03-07T03:18:02.101Z,7.57
2024-03-07T03:20:36.493Z,7.20
2024-03-07T03:23:11.927Z,6.63
2024-03-07T03:25:49.130Z,7.22
2024-03-07T03:28:16.050Z,6.07
2024-03-07T03:30:43.942Z,6.20
2024-03-07T03:33:11.524Z,7.50
2024-03-07T03:35:39.121Z,5.05
2024-03-07T03:38:06.669Z,8.52
2024-03-07T03:40:34.081Z,9.05
2024-03-07T03:43:04.489Z,7.90
2024-03-07T03:45:33.301Z,6.85
2024-03-07T03:48:00.947Z,8.07
2024-03-07T03:50:28.780Z,6.78
2024-03-07T03:52:56.079Z,8.35
2024-03-07T03:55:23.711Z,7.68
2024-03-07T03:57:51.020Z,7.03
2024-03-07T04:00:18.740Z,7.30
2024-03-07T04:05:18.865Z,5.68
2024-03-07T04:07:45.921Z,5.32
2024-03-07T04:10:14.008Z,7.93
2024-03-07T04:12:42.123Z,8.98
2024-03-07T04:15:10.717Z,7.68
2024-03-07T04:17:38.402Z,7.97
2024-03-07T04:20:07.127Z,8.07
2024-03-07T04:22:34.684Z,7.10
2024-03-07T04:25:02.346Z,7.03
2024-03-07T04:27:29.722Z,7.82
2024-03-07T04:29:56.646Z,7.05
2024-03-07T04:32:24.264Z,7.82
2024-03-07T04:34:51.638Z,7.47
2024-03-07T04:37:18.644Z,6.88
2024-03-07T04:39:45.485Z,8.45
2024-03-07T04:42:12.402Z,7.97
2024-03-07T04:44:40.399Z,5.40
2024-03-07T04:47:08.432Z,7.57
2024-03-07T04:49:35.730Z,8.10
2024-03-07T04:52:04.055Z,6.78
2024-03-07T04:54:32.828Z,8.70
2024-03-07T04:56:59.772Z,7.68
2024-03-07T04:59:26.902Z,6.35
2024-03-07T05:01:53.751Z,6.15
2024-03-07T05:04:20.660Z,5.72
2024-03-07T05:06:50.230Z,6.80
2024-03-07T05:09:23.980Z,8.68
2024-03-07T05:11:54.416Z,5.57
2024-03-07T05:14:22.845Z,7.97
2024-03-07T05:17:10.340Z,8.25
2024-03-07T05:19:37.342Z,8.13
2024-03-07T05:22:07.031Z,5.53
2024-03-07T05:24:35.182Z,6.95
2024-03-07T05:27:02.494Z,6.68
2024-03-07T05:29:29.530Z,9.30
2024-03-07T05:31:56.497Z,6.65
2024-03-07T05:34:24.373Z,7.30
2024-03-07T05:36:51.464Z,7.88
2024-03-07T05:39:19.169Z,5.07
2024-03-07T05:41:46.867Z,5.78
2024-03-07T05:44:14.419Z,6.53
2024-03-07T05:46:47.147Z,7.68
2024-03-07T05:49:14.914Z,7.32
2024-03-07T05:51:46.055Z,6.72
2024-03-07T05:54:14.021Z,8.02
2024-03-07T05:56:41.922Z,6.18
2024-03-07T05:59:13.082Z,6.35
2024-03-07T06:01:40.299Z,7.22
2024-03-07T06:04:08.096Z,6.53
2024-03-07T06:06:36.565Z,7.65
2024-03-07T06:09:08.701Z,7.03
2024-03-07T06:11:36.737Z,6.60
2024-03-07T06:14:04.855Z,8.75
2024-03-07T06:16:33.738Z,7.65
2024-03-07T06:19:02.488Z,7.40
2024-03-07T06:21:33.266Z,6.32
2024-03-07T06:24:00.927Z,6.55
2024-03-07T06:26:50.410Z,7.97
2024-03-07T06:29:18.763Z,7.93
2024-03-07T06:31:50.239Z,6.35
2024-03-07T06:34:18.602Z,9.00
2024-03-07T06:36:45.579Z,7.95
2024-03-07T06:39:13.122Z,6.95
2024-03-07T06:44:08.506Z,5.13
2024-03-07T06:46:35.774Z,8.15
2024-03-07T06:49:02.941Z,7.13
2024-03-07T06:51:29.952Z,7.25
2024-03-07T06:53:57.362Z,6.13
2024-03-07T06:56:27.255Z,7.05
2024-03-07T06:58:54.179Z,7.60
2024-03-07T07:01:21.750Z,6.97
2024-03-07T07:03:49.165Z,7.88
2024-03-07T07:06:17.436Z,7.63
2024-03-07T07:08:46.277Z,7.47
2024-03-07T07:11:13.961Z,7.75
2024-03-07T07:16:07.925Z,7.22
2024-03-07T07:18:36.871Z,4.40
2024-03-07T07:21:04.814Z,6.72
2024-03-07T07:23:31.969Z,6.57
2024-03-07T07:25:58.955Z,8.68
2024-03-07T07:28:25.846Z,4.50
2024-03-07T07:30:52.809Z,8.02
2024-03-07T07:33:19.910Z,7.43
2024-03-07T07:35:47.056Z,7.45
2024-03-07T07:38:16.060Z,8.07
2024-03-07T07:40:44.068Z,7.93
2024-03-07T07:43:19.539Z,7.65
2024-03-07T07:45:52.576Z,7.60
2024-03-07T07:48:20.498Z,5.70
2024-03-07T07:50:49.917Z,6.90
2024-03-07T07:53:16.838Z,7.00
2024-03-07T07:55:43.687Z,7.35
2024-03-07T07:58:10.499Z,7.93
2024-03-07T08:00:38.125Z,5.18
2024-03-07T08:03:09.550Z,7.95
2024-03-07T08:05:38.837Z,8.73
2024-03-07T08:08:12.036Z,6.32
2024-03-07T08:10:44.611Z,8.48
2024-03-07T08:13:14.280Z,8.23
2024-03-07T08:15:41.557Z,8.98
2024-03-07T08:18:10.550Z,8.57
2024-03-07T08:20:39.843Z,8.65
2024-03-07T08:23:06.699Z,7.78
2024-03-07T08:25:33.516Z,5.22
2024-03-07T08:28:01.161Z,8.30
2024-03-07T08:30:29.749Z,9.00
2024-03-07T08:32:58.310Z,7.25
2024-03-07T08:35:25.718Z,7.65
2024-03-07T08:37:55.405Z,9.30
2024-03-07T08:40:29.884Z,9.85
2024-03-07T08:42:57.813Z,7.95
2024-03-07T08:45:27.061Z,7.57
2024-03-07T08:47:56.366Z,6.82
2024-03-07T08:50:24.894Z,8.23
2024-03-07T08:52:52.035Z,8.20
2024-03-07T08:55:26.618Z,8.18
2024-03-07T08:57:54.136Z,7.53
2024-03-07T09:00:28.440Z,8.63
2024-03-07T09:03:01.952Z,7.20
2024-03-07T09:05:31.194Z,8.50
2024-03-07T09:07:59.156Z,7.30
2024-03-07T09:10:27.229Z,8.07
2024-03-07T09:12:55.280Z,7.40
2024-03-07T09:15:23.442Z,8.32
2024-03-07T09:17:51.063Z,7.72
2024-03-07T09:20:19.851Z,8.55
2024-03-07T09:22:51.623Z,7.95
2024-03-07T09:25:19.905Z,9.60
2024-03-07T09:27:47.358Z,8.07
2024-03-07T09:30:15.997Z,8.25
2024-03-07T09:32:43.528Z,7.70
2024-03-07T09:35:15.105Z,8.38
2024-03-07T09:37:43.396Z,7.63
2024-03-07T09:40:12.362Z,8.30
2024-03-07T09:42:44.876Z,8.93
2024-03-07T09:45:17.413Z,9.65
2024-03-07T09:47:49.024Z,7.47
2024-03-07T09:50:20.221Z,8.20
2024-03-07T09:52:52.557Z,7.55
2024-03-07T09:55:21.642Z,10.60
2024-03-07T09:57:49.413Z,9.45
2024-03-07T10:00:27.085Z,9.98
2024-03-07T10:02:56.307Z,8.93
2024-03-07T10:05:24.798Z,10.18
2024-03-07T10:07:53.230Z,11.00
2024-03-07T10:10:21.197Z,9.68
2024-03-07T10:12:48.976Z,10.45
2024-03-07T10:15:18.467Z,9.05
2024-03-07T10:17:47.619Z,9.60
2024-03-07T10:20:19.520Z,8.57
2024-03-07T10:22:46.475Z,9.13
2024-03-07T10:25:13.443Z,8.02
2024-03-07T10:27:40.362Z,7.72
2024-03-07T10:30:10.995Z,7.78
2024-03-07T10:32:38.156Z,7.72
2024-03-07T10:35:08.064Z,7.97
2024-03-07T10:37:36.697Z,6.93
2024-03-07T10:40:16.619Z,6.85
2024-03-07T10:42:53.857Z,6.68
2024-03-07T10:45:25.100Z,7.55
2024-03-07T10:47:57.202Z,7.85
2024-03-07T10:50:46.327Z,7.50
2024-03-07T10:53:31.821Z,6.82
2024-03-07T10:56:22.694Z,6.68
2024-03-07T10:59:03.288Z,6.25
2024-03-07T11:01:34.395Z,6.47
2024-03-07T11:04:06.350Z,5.70
2024-03-07T11:06:35.255Z,6.55
2024-03-07T11:09:13.565Z,7.50
2024-03-07T11:11:44.999Z,7.18
2024-03-07T11:14:13.356Z,6.25
2024-03-07T11:16:42.398Z,7.30
2024-03-07T11:19:29.585Z,7.80
2024-03-07T11:22:00.425Z,6.68
2024-03-07T11:24:34.665Z,8.43
2024-03-07T11:27:05.884Z,5.55
2024-03-07T11:29:48.721Z,6.47
2024-03-07T11:32:17.035Z,7.32
2024-03-07T11:34:48.070Z,7.40
2024-03-07T11:37:42.258Z,6.55
2024-03-07T11:40:19.002Z,6.70
2024-03-07T11:42:49.077Z,7.28
2024-03-07T11:45:26.187Z,6.95
2024-03-07T11:48:01.012Z,6.50
2024-03-07T11:50:28.411Z,6.85
2024-03-07T11:52:56.461Z,7.30
2024-03-07T11:55:24.058Z,6.70
2024-03-07T11:57:51.969Z,6.05
2024-03-07T12:00:20.209Z,6.80
2024-03-07T12:02:49.453Z,6.85
2024-03-07T12:05:20.835Z,6.55
2024-03-07T12:07:48.401Z,6.03
2024-03-07T12:12:44.839Z,6.10
2024-03-07T12:15:20.470Z,5.70
2024-03-07T12:17:51.914Z,5.95
2024-03-07T12:20:31.538Z,6.40
2024-03-07T12:23:03.731Z,5.65
2024-03-07T12:25:31.690Z,5.90
2024-03-07T12:28:06.654Z,5.70
2024-03-07T12:30:35.440Z,5.60
2024-03-07T12:33:05.309Z,4.55
2024-03-07T12:35:33.353Z,5.97
2024-03-07T12:38:00.676Z,4.93
2024-03-07T12:40:33.575Z,5.45
2024-03-07T12:43:01.426Z,5.78
2024-03-07T12:45:30.019Z,5.10
2024-03-07T12:47:57.872Z,5.50
2024-03-07T12:50:24.893Z,5.97
2024-03-07T12:52:52.198Z,4.82
2024-03-07T12:55:19.398Z,5.45
2024-03-07T12:57:46.542Z,5.15
2024-03-07T13:00:20.466Z,4.60
2024-03-07T13:02:50.911Z,4.60
2024-03-07T13:05:22.935Z,5.38
2024-03-07T13:07:50.426Z,4.25
2024-03-07T13:12:52.987Z,4.43
2024-03-07T13:15:22.699Z,4.30
2024-03-07T13:17:53.192Z,4.15
2024-03-07T13:20:23.029Z,4.22
2024-03-07T13:22:50.088Z,4.72
2024-03-07T13:25:26.910Z,3.63
2024-03-07T13:28:00.656Z,3.95
2024-03-07T13:30:30.118Z,3.75
2024-03-07T13:32:58.662Z,3.70
2024-03-07T13:35:26.994Z,3.72
2024-03-07T13:37:57.290Z,3.80
2024-03-07T13:40:26.097Z,3.40
2024-03-07T13:42:56.960Z,3.45
2024-03-07T13:45:32.575Z,3.70
2024-03-07T13:48:00.747Z,3.85
2024-03-07T13:50:45.886Z,4.13
2024-03-07T13:53:18.823Z,4.20
2024-03-07T13:55:54.696Z,3.60
2024-03-07T13:58:26.056Z,4.25
2024-03-07T14:01:06.107Z,2.65
2024-03-07T14:04:01.967Z,3.17
2024-03-07T14:06:47.226Z,3.92
2024-03-07T14:09:44.357Z,3.00
2024-03-07T14:12:35.401Z,3.38
2024-03-07T14:15:43.368Z,3.03
2024-03-07T14:18:27.504Z,3.75
2024-03-07T14:21:07.859Z,3.45
2024-03-07T14:23:47.018Z,3.10
2024-03-07T14:26:14.162Z,3.25
2024-03-07T14:29:06.801Z,3.67
2024-03-07T14:31:33.645Z,3.45
2024-03-07T14:34:18.847Z,3.88
2024-03-07T14:36:51.176Z,4.65
2024-03-07T14:39:24.775Z,3.38
2024-03-07T14:42:02.534Z,3.92
2024-03-07T14:44:29.973Z,4.00
2024-03-07T14:47:02.377Z,3.67
2024-03-07T14:49:29.744Z,4.35
2024-03-07T14:54:28.803Z,3.63
2024-03-07T14:56:56.292Z,4.50
2024-03-07T14:59:23.667Z,4.80
2024-03-07T15:04:19.147Z,4.70
2024-03-07T15:06:46.947Z,5.30
2024-03-07T15:09:14.689Z,5.18
2024-03-07T15:11:42.124Z,4.53
2024-03-07T15:16:40.271Z,5.45
2024-03-07T15:19:09.058Z,5.60
2024-03-07T15:21:39.255Z,4.78
2024-03-07T15:24:07.009Z,5.13
2024-03-07T15:26:34.839Z,4.45
2024-03-07T15:29:02.048Z,5.70
2024-03-07T15:31:29.703Z,5.07
2024-03-07T15:33:57.151Z,4.75
2024-03-07T15:36:24.363Z,5.53
2024-03-07T15:38:51.778Z,5.53
2024-03-07T15:43:46.102Z,4.13
2024-03-07T15:48:42.246Z,4.97
2024-03-07T15:51:11.943Z,4.60
2024-03-07T15:53:42.256Z,5.97
2024-03-07T15:56:09.607Z,4.40
2024-03-07T15:58:36.425Z,4.95
2024-03-07T16:01:04.062Z,4.78
2024-03-07T16:03:30.991Z,4.10
2024-03-07T16:05:58.458Z,5.30
2024-03-07T16:08:25.721Z,5.13
2024-03-07T16:10:53.930Z,4.55
2024-03-07T16:13:21.434Z,4.43
2024-03-07T16:15:48.825Z,5.10
2024-03-07T16:18:17.006Z,5.32
2024-03-07T16:20:47.818Z,5.30
2024-03-07T16:23:16.866Z,4.85
2024-03-07T16:25:44.474Z,5.38
2024-03-07T16:28:12.398Z,6.10
2024-03-07T16:30:44.889Z,5.10
2024-03-07T16:33:12.042Z,5.80
2024-03-07T16:35:38.943Z,5.53
2024-03-07T16:38:06.199Z,5.82
2024-03-07T16:40:34.480Z,5.35
2024-03-07T16:43:02.303Z,5.20
2024-03-07T16:45:33.379Z,5.60
2024-03-07T16:48:03.594Z,5.03
2024-03-07T16:50:31.727Z,4.97
2024-03-07T16:53:07.155Z,4.53
2024-03-07T16:55:37.564Z,5.43
2024-03-07T17:00:34.502Z,5.13
2024-03-07T17:03:06.749Z,4.68
2024-03-07T17:05:40.250Z,5.72
2024-03-07T17:08:07.731Z,5.07
2024-03-07T17:13:11.568Z,5.18
2024-03-07T17:15:39.700Z,6.00
2024-03-07T17:18:07.812Z,5.07
2024-03-07T17:20:36.625Z,5.22
2024-03-07T17:23:06.750Z,5.47
2024-03-07T17:25:34.452Z,4.72
2024-03-07T17:28:01.614Z,5.15
2024-03-07T17:30:36.423Z,6.32
2024-03-07T17:33:06.298Z,5.63
2024-03-07T17:35:35.710Z,5.88
2024-03-07T17:38:02.906Z,5.65
2024-03-07T17:40:33.730Z,5.45
2024-03-07T17:43:05.949Z,5.80
2024-03-07T17:45:38.002Z,6.38
2024-03-07T17:48:07.837Z,6.63
2024-03-07T17:50:37.118Z,6.32
2024-03-07T17:53:11.229Z,5.93
2024-03-07T17:55:42.446Z,5.25
2024-03-07T17:58:10.544Z,6.00
2024-03-07T18:00:37.666Z,5.50
2024-03-07T18:03:06.227Z,7.32
2024-03-07T18:05:37.679Z,6.07
2024-03-07T18:08:34.012Z,6.50
2024-03-07T18:11:06.964Z,6.45
2024-03-07T18:13:34.287Z,6.63
2024-03-07T18:16:01.259Z,6.22
2024-03-07T18:18:28.423Z,5.78
2024-03-07T18:20:57.575Z,6.80
2024-03-07T18:23:24.615Z,6.00
2024-03-07T18:25:52.517Z,6.68
2024-03-07T18:28:22.472Z,6.78
2024-03-07T18:30:51.583Z,7.03
2024-03-07T18:33:19.386Z,6.53
2024-03-07T18:35:47.241Z,6.68
2024-03-07T18:38:15.177Z,6.57
2024-03-07T18:40:42.907Z,5.25
2024-03-07T18:43:11.957Z,6.43
2024-03-07T18:45:40.384Z,6.43
2024-03-07T18:48:09.213Z,6.38
2024-03-07T18:50:46.686Z,6.88
2024-03-07T18:53:16.244Z,6.97
2024-03-07T18:55:48.002Z,6.57
2024-03-07T18:58:16.746Z,7.13
2024-03-07T19:00:49.449Z,7.57
2024-03-07T19:03:20.095Z,6.50
2024-03-07T19:05:49.219Z,7.28
2024-03-07T19:08:16.696Z,7.35
2024-03-07T19:10:45.006Z,6.15
2024-03-07T19:13:14.034Z,6.68
2024-03-07T19:15:44.497Z,6.25
2024-03-07T19:18:14.015Z,7.30
2024-03-07T19:20:48.155Z,6.38
2024-03-07T19:23:21.129Z,5.50
2024-03-07T19:25:54.863Z,5.00
2024-03-07T19:28:24.631Z,5.93
2024-03-07T19:30:51.950Z,5.85
2024-03-07T19:33:20.011Z,5.22
2024-03-07T19:35:57.743Z,5.50
2024-03-07T19:38:25.819Z,5.25
2024-03-07T19:40:53.443Z,4.90
2024-03-07T19:45:48.202Z,4.32
2024-03-07T19:48:15.367Z,4.07
2024-03-07T19:50:44.040Z,4.18
2024-03-07T19:53:15.535Z,5.50
2024-03-07T19:55:47.521Z,5.60
2024-03-07T19:58:15.031Z,4.88
2024-03-07T20:00:47.337Z,3.92
2024-03-07T20:03:24.376Z,4.60
2024-03-07T20:05:55.371Z,4.38
2024-03-07T20:08:27.711Z,4.82
2024-03-07T20:10:56.378Z,5.38
2024-03-07T20:13:23.554Z,4.03
2024-03-07T20:15:50.394Z,4.90
2024-03-07T20:18:18.149Z,2.92
2024-03-07T20:20:46.783Z,4.38
2024-03-07T20:23:17.665Z,4.93
2024-03-07T20:25:46.599Z,4.75
2024-03-07T20:28:15.390Z,4.50
2024-03-07T20:30:46.153Z,3.55
2024-03-07T20:33:13.717Z,4.30
2024-03-07T20:35:40.840Z,4.78
2024-03-07T20:38:10.852Z,4.10
2024-03-07T20:40:38.742Z,4.25
2024-03-07T20:43:05.660Z,5.22
2024-03-07T20:45:36.156Z,3.88
2024-03-07T20:48:12.392Z,4.05
2024-03-07T20:50:42.733Z,3.80
2024-03-07T20:53:10.854Z,4.60
2024-03-07T20:55:40.629Z,4.57
2024-03-07T20:58:09.702Z,4.63
2024-03-07T21:00:37.006Z,4.07
2024-03-07T21:03:07.761Z,3.85
2024-03-07T21:05:37.869Z,5.38
2024-03-07T21:08:06.002Z,4.18
2024-03-07T21:10:32.920Z,4.38
2024-03-07T21:12:59.774Z,3.90
2024-03-07T21:15:27.553Z,3.38
2024-03-07T21:17:57.436Z,4.63
2024-03-07T21:20:24.406Z,4.50
2024-03-07T21:22:51.604Z,3.83
2024-03-07T21:25:19.965Z,4.32
2024-03-07T21:27:51.557Z,4.05
2024-03-07T21:30:21.768Z,4.00
2024-03-07T21:32:49.680Z,4.35
2024-03-07T21:35:17.229Z,4.47
2024-03-07T21:37:45.105Z,4.88
2024-03-07T21:40:20.437Z,4.25
2024-03-07T21:42:48.613Z,3.65
2024-03-07T21:45:18.217Z,4.80
2024-03-07T21:47:46.082Z,4.57
2024-03-07T21:50:17.363Z,4.88
2024-03-07T21:52:46.994Z,4.30
2024-03-07T21:55:14.796Z,4.05
2024-03-07T21:57:44.408Z,4.80
2024-03-07T22:00:17.537Z,3.78
2024-03-07T22:02:57.879Z,5.00
2024-03-07T22:05:29.860Z,5.25
2024-03-07T22:07:57.319Z,4.82
2024-03-07T22:10:24.292Z,4.93
2024-03-07T22:12:53.440Z,2.97
2024-03-07T22:15:24.582Z,3.63
2024-03-07T22:17:53.727Z,5.05
2024-03-07T22:20:24.374Z,3.17
2024-03-07T22:22:52.839Z,4.50
2024-03-07T22:25:24.369Z,4.53
2024-03-07T22:27:52.525Z,5.53
2024-03-07T22:30:24.709Z,4.80
2024-03-07T22:32:53.164Z,4.75
2024-03-07T22:35:20.753Z,4.60
2024-03-07T22:37:54.173Z,3.80
2024-03-07T22:40:25.757Z,4.95
2024-03-07T22:42:53.588Z,5.40
2024-03-07T22:45:20.698Z,3.60
2024-03-07T22:47:51.196Z,4.57
2024-03-07T22:50:27.510Z,4.45
2024-03-07T22:52:58.224Z,4.10
2024-03-07T22:55:25.118Z,4.63
2024-03-07T22:57:52.171Z,5.00
2024-03-07T23:00:26.078Z,4.07
2024-03-07T23:02:53.644Z,4.30
2024-03-07T23:05:21.843Z,5.97
2024-03-07T23:07:48.920Z,4.63
2024-03-07T23:10:16.600Z,2.78
2024-03-07T23:12:45.893Z,4.43
2024-03-07T23:15:13.158Z,5.07
2024-03-07T23:17:44.538Z,4.95
2024-03-07T23:20:21.833Z,5.10
2024-03-07T23:25:20.210Z,4.45
2024-03-07T23:27:51.124Z,5.10
2024-03-07T23:30:18.607Z,5.70
2024-03-07T23:35:14.227Z,4.80
2024-03-07T23:37:41.744Z,5.60
2024-03-07T23:45:03.755Z,4.93
2024-03-07T23:47:31.345Z,7.15
2024-03-07T23:49:58.344Z,6.30
2024-03-07T23:52:25.256Z,5.85
2024-03-07T23:54:54.295Z,5.22
2024-03-07T23:57:22.028Z,6.35
2024-03-07T23:59:49.585Z,7.10
